createdAt,value
2022-09-16T00:03:17.863Z,72.22
2022-09-16T00:08:21.264Z,72.35
2022-09-16T00:13:23.155Z,72.10
2022-09-16T00:18:25.339Z,72.10
2022-09-16T00:23:27.222Z,72.14
2022-09-16T00:28:29.045Z,72.00
2022-09-16T00:33:31.793Z,71.83
2022-09-16T00:38:33.735Z,71.88
2022-09-16T00:44:27.642Z,71.92
2022-09-16T00:49:31.283Z,72.13
2022-09-16T00:54:37.729Z,72.14
2022-09-16T00:59:44.452Z,72.03
2022-09-16T01:05:07.075Z,72.08
2022-09-16T01:10:09.546Z,72.16
2022-09-16T01:15:14.098Z,72.22
2022-09-16T01:20:40.778Z,72.01
2022-09-16T01:26:16.747Z,72.09
2022-09-16T01:31:34.779Z,72.12
2022-09-16T01:36:49.219Z,72.08
2022-09-16T01:42:16.098Z,72.14
2022-09-16T01:47:39.319Z,72.09
2022-09-16T01:53:15.475Z,72.20
2022-09-16T01:58:35.845Z,72.21
2022-09-16T02:03:41.984Z,72.08
2022-09-16T02:08:49.892Z,72.00
2022-09-16T02:14:02.250Z,72.11
2022-09-16T02:19:12.573Z,72.20
2022-09-16T02:24:19.982Z,72.30
2022-09-16T02:29:26.055Z,72.24
2022-09-16T02:34:32.943Z,72.48
2022-09-16T02:39:40.495Z,72.62
2022-09-16T02:44:43.830Z,72.57
2022-09-16T02:50:22.959Z,72.66
2022-09-16T02:55:52.260Z,72.81
2022-09-16T03:00:55.507Z,72.63
2022-09-16T03:06:00.359Z,72.88
2022-09-16T03:11:18.853Z,72.92
2022-09-16T03:16:47.726Z,73.01
2022-09-16T03:22:18.151Z,73.06
2022-09-16T03:27:56.103Z,73.12
2022-09-16T03:33:10.708Z,73.02
2022-09-16T03:38:14.794Z,73.18
2022-09-16T03:43:17.602Z,73.01
2022-09-16T03:48:19.763Z,73.33
2022-09-16T03:53:21.653Z,73.13
2022-09-16T03:58:23.424Z,73.26
2022-09-16T04:03:27.120Z,73.38
2022-09-16T04:08:32.448Z,73.29
2022-09-16T04:13:35.655Z,73.27
2022-09-16T04:18:37.827Z,73.20
2022-09-16T04:23:39.666Z,73.30
2022-09-16T04:28:41.709Z,73.40
2022-09-16T04:33:43.713Z,73.24
2022-09-16T04:38:50.193Z,73.41
2022-09-16T04:43:56.474Z,73.29
2022-09-16T04:49:00.067Z,73.50
2022-09-16T04:54:02.041Z,73.32
2022-09-16T04:59:05.794Z,73.14
2022-09-16T05:04:08.515Z,73.40
2022-09-16T05:09:12.352Z,73.43
2022-09-16T05:14:17.854Z,73.39
2022-09-16T05:19:20.253Z,73.28
2022-09-16T05:24:22.106Z,73.19
2022-09-16T05:29:23.968Z,73.35
2022-09-16T05:34:28.827Z,73.38
2022-09-16T05:39:30.835Z,73.26
2022-09-16T05:44:32.676Z,73.31
2022-09-16T05:49:34.486Z,73.42
2022-09-16T05:54:36.313Z,73.27
2022-09-16T05:59:38.135Z,73.56
2022-09-16T06:04:40.002Z,73.56
2022-09-16T06:09:41.943Z,73.75
2022-09-16T06:14:43.724Z,73.87
2022-09-16T06:19:45.867Z,73.88
2022-09-16T06:24:47.907Z,73.95
2022-09-16T06:29:49.972Z,74.11
2022-09-16T06:34:52.407Z,74.16
2022-09-16T06:39:54.261Z,74.28
2022-09-16T06:44:56.412Z,74.36
2022-09-16T06:49:58.258Z,74.42
2022-09-16T06:55:00.046Z,74.57
2022-09-16T07:00:04.285Z,74.47
2022-09-16T07:05:06.485Z,74.43
2022-09-16T07:10:09.135Z,74.38
2022-09-16T07:15:11.117Z,74.21
2022-09-16T07:20:13.130Z,74.21
2022-09-16T07:25:15.096Z,74.06
2022-09-16T07:30:16.942Z,73.89
2022-09-16T07:35:18.777Z,73.87
2022-09-16T07:40:20.770Z,73.60
2022-09-16T07:45:22.655Z,73.24
2022-09-16T07:50:24.487Z,72.92
2022-09-16T07:55:27.643Z,72.98
2022-09-16T08:00:29.629Z,72.97
2022-09-16T08:05:31.678Z,72.86
2022-09-16T08:10:33.644Z,72.55
2022-09-16T08:15:35.588Z,72.64
2022-09-16T08:20:37.688Z,72.45
2022-09-16T08:25:39.607Z,72.14
2022-09-16T08:30:42.763Z,71.84
2022-09-16T08:35:44.598Z,71.59
2022-09-16T08:40:46.888Z,71.37
2022-09-16T08:46:19.818Z,70.98
2022-09-16T08:51:23.138Z,70.39
2022-09-16T08:56:29.482Z,69.97
2022-09-16T09:01:44.283Z,69.88
2022-09-16T09:06:49.372Z,70.01
2022-09-16T09:12:11.867Z,69.96
2022-09-16T09:17:55.686Z,70.69
2022-09-16T09:23:00.427Z,70.89
2022-09-16T09:28:05.116Z,70.91
2022-09-16T09:33:47.072Z,70.62
2022-09-16T09:39:13.497Z,70.40
2022-09-16T09:44:37.132Z,70.51
2022-09-16T09:49:47.913Z,70.13
2022-09-16T09:54:52.409Z,69.75
2022-09-16T10:00:02.610Z,69.46
2022-09-16T10:05:24.751Z,68.68
2022-09-16T10:10:31.491Z,68.38
2022-09-16T10:15:34.534Z,67.91
2022-09-16T10:20:43.354Z,67.49
2022-09-16T10:25:45.266Z,67.18
2022-09-16T10:30:51.302Z,67.37
2022-09-16T10:36:20.865Z,67.13
2022-09-16T10:41:28.952Z,66.91
2022-09-16T10:46:31.548Z,66.57
2022-09-16T10:51:34.755Z,67.47
2022-09-16T10:56:49.479Z,68.35
2022-09-16T11:01:54.695Z,68.94
2022-09-16T11:07:25.791Z,69.24
2022-09-16T11:12:55.501Z,69.52
2022-09-16T11:18:24.362Z,70.02
2022-09-16T11:23:38.294Z,70.29
2022-09-16T11:28:50.020Z,70.22
2022-09-16T11:34:24.485Z,70.65
2022-09-16T11:39:52.670Z,70.86
2022-09-16T11:45:29.215Z,71.29
2022-09-16T11:50:42.740Z,70.90
2022-09-16T11:55:45.668Z,70.75
2022-09-16T12:00:50.065Z,70.94
2022-09-16T12:06:04.737Z,70.90
2022-09-16T12:11:33.270Z,70.61
2022-09-16T12:16:42.592Z,70.21
2022-09-16T12:21:57.873Z,69.15
2022-09-16T12:27:17.730Z,68.77
2022-09-16T12:32:48.175Z,68.35
2022-09-16T12:37:55.014Z,68.37
2022-09-16T12:43:41.321Z,68.22
2022-09-16T12:49:16.350Z,68.21
2022-09-16T12:55:11.354Z,67.59
2022-09-16T13:00:27.397Z,67.76
2022-09-16T13:05:38.089Z,66.49
2022-09-16T13:11:11.595Z,65.56
2022-09-16T13:16:07.561Z,66.03
2022-09-16T13:21:28.124Z,65.92
2022-09-16T13:26:41.963Z,65.30
2022-09-16T13:31:48.850Z,65.22
2022-09-16T13:36:51.514Z,63.93
2022-09-16T13:41:53.406Z,63.09
2022-09-16T13:46:55.198Z,62.72
2022-09-16T13:51:57.052Z,62.24
2022-09-16T13:57:40.922Z,62.06
2022-09-16T14:02:49.069Z,61.73
2022-09-16T14:07:56.901Z,60.29
2022-09-16T14:13:11.086Z,60.35
2022-09-16T14:18:17.939Z,60.72
2022-09-16T14:23:20.526Z,61.48
2022-09-16T14:28:27.930Z,61.72
2022-09-16T14:33:37.423Z,61.84
2022-09-16T14:38:46.567Z,62.00
2022-09-16T14:44:19.206Z,62.11
2022-09-16T14:49:22.551Z,61.55
2022-09-16T14:54:27.453Z,60.38
2022-09-16T14:59:42.028Z,59.93
2022-09-16T15:04:50.898Z,59.04
2022-09-16T15:10:06.407Z,58.99
2022-09-16T15:15:29.792Z,58.57
2022-09-16T15:20:38.709Z,57.66
2022-09-16T15:25:40.557Z,57.90
2022-09-16T15:30:51.002Z,58.33
2022-09-16T15:35:53.487Z,58.67
2022-09-16T15:41:21.452Z,58.54
2022-09-16T15:46:24.435Z,59.32
2022-09-16T15:51:49.331Z,59.33
2022-09-16T15:57:06.659Z,59.55
2022-09-16T16:02:32.971Z,59.25
2022-09-16T16:07:41.397Z,59.27
2022-09-16T16:12:48.008Z,59.87
2022-09-16T16:17:50.602Z,60.14
2022-09-16T16:22:53.516Z,60.25
2022-09-16T16:27:55.787Z,60.75
2022-09-16T16:32:57.608Z,60.70
2022-09-16T16:37:59.559Z,60.90
2022-09-16T16:43:01.653Z,61.02
2022-09-16T16:48:03.532Z,61.22
2022-09-16T16:53:06.339Z,61.58
2022-09-16T16:58:08.185Z,61.51
2022-09-16T17:03:09.997Z,61.90
2022-09-16T17:08:12.076Z,62.15
2022-09-16T17:13:14.217Z,62.20
2022-09-16T17:18:16.298Z,62.29
2022-09-16T17:23:18.123Z,62.63
2022-09-16T17:28:19.944Z,62.73
2022-09-16T17:33:22.051Z,62.99
2022-09-16T17:38:24.041Z,63.04
2022-09-16T17:43:31.414Z,62.99
2022-09-16T17:48:36.502Z,63.08
2022-09-16T17:53:38.485Z,63.34
2022-09-16T17:58:44.001Z,63.49
2022-09-16T18:03:48.041Z,63.59
2022-09-16T18:08:51.168Z,63.68
2022-09-16T18:13:58.228Z,63.90
2022-09-16T18:19:02.058Z,63.88
2022-09-16T18:24:05.642Z,64.14
2022-09-16T18:29:10.871Z,63.98
2022-09-16T18:34:14.294Z,64.07
2022-09-16T18:39:17.246Z,64.08
2022-09-16T18:44:23.834Z,64.08
2022-09-16T18:49:28.003Z,63.91
2022-09-16T18:54:30.029Z,63.77
2022-09-16T18:59:34.254Z,63.90
2022-09-16T19:04:41.821Z,63.75
2022-09-16T19:09:45.484Z,63.76
2022-09-16T19:14:47.490Z,63.73
2022-09-16T19:19:50.909Z,63.96
2022-09-16T19:24:54.326Z,63.79
2022-09-16T19:29:56.386Z,63.76
2022-09-16T19:34:58.351Z,63.80
2022-09-16T19:40:00.549Z,63.87
2022-09-16T19:45:02.707Z,63.90
2022-09-16T19:50:06.157Z,63.96
2022-09-16T19:55:09.537Z,63.94
2022-09-16T20:00:14.542Z,63.99
2022-09-16T20:05:16.420Z,64.05
2022-09-16T20:10:18.983Z,64.10
2022-09-16T20:15:20.845Z,64.03
2022-09-16T20:20:23.179Z,64.14
2022-09-16T20:25:25.383Z,64.16
2022-09-16T20:30:27.432Z,64.15
2022-09-16T20:35:29.223Z,64.31
2022-09-16T20:40:31.452Z,64.19
2022-09-16T20:45:38.187Z,64.39
2022-09-16T20:50:44.707Z,64.43
2022-09-16T20:55:46.888Z,64.51
2022-09-16T21:00:49.865Z,64.54
2022-09-16T21:05:52.043Z,64.59
2022-09-16T21:10:53.774Z,64.80
2022-09-16T21:15:57.547Z,64.63
2022-09-16T21:21:04.443Z,64.61
2022-09-16T21:26:17.880Z,64.40
2022-09-16T21:31:19.786Z,64.23
2022-09-16T21:36:23.728Z,63.88
2022-09-16T21:41:26.623Z,63.64
2022-09-16T21:46:35.223Z,63.50
2022-09-16T21:51:38.050Z,63.21
2022-09-16T21:56:40.685Z,63.51
2022-09-16T22:01:42.745Z,63.29
2022-09-16T22:06:44.990Z,63.30
2022-09-16T22:11:47.592Z,63.43
2022-09-16T22:16:49.465Z,63.21
2022-09-16T22:21:51.633Z,63.48
2022-09-16T22:26:53.362Z,63.40
2022-09-16T22:31:55.114Z,63.41
2022-09-16T22:36:56.846Z,63.42
2022-09-16T22:41:58.715Z,63.48
2022-09-16T22:47:00.799Z,63.57
2022-09-16T22:52:02.957Z,63.58
2022-09-16T22:57:04.917Z,63.55
2022-09-16T23:02:06.834Z,63.53
2022-09-16T23:07:10.128Z,63.62
2022-09-16T23:12:16.029Z,63.62
2022-09-16T23:17:17.866Z,63.75
2022-09-16T23:22:19.716Z,63.85
2022-09-16T23:27:21.491Z,63.76
2022-09-16T23:32:23.307Z,63.92
2022-09-16T23:37:25.166Z,63.77
2022-09-16T23:42:27.666Z,63.84
2022-09-16T23:47:29.527Z,63.92
2022-09-16T23:52:31.368Z,63.79
2022-09-16T23:57:33.335Z,64.01
